Sunday, April 21, 2019, 10:39 PM EDT
Back to Local

KAKR, Akron Fulton International

Location: Akron, OH, United States Lat: 41.033
Local Time: 10:39 PM EDT ( 2:39 GMT) Lon: -81.467
Time Zone: US/Eastern Elev: 1069 ft

Show me the last for .
Show Decoded

2019-04-21 21:54 METAR KAKR 220154Z AUTO 20004KT 10SM FEW110 11/06 A3017 RMK AO2 SLP218 T01060061
                 =
2019-04-21 20:54 METAR KAKR 220054Z AUTO 00000KT 10SM CLR 12/06 A3016 RMK AO2 SLP216 T01170056 =
2019-04-21 19:54 METAR KAKR 212354Z AUTO 13003KT 10SM FEW120 12/06 A3014 RMK AO2 SLP209 T01220056
                 10133 20100 51010 =
2019-04-21 18:54 METAR KAKR 212254Z AUTO 00000KT 10SM SCT035 13/06 A3013 RMK AO2 SLP205 T01330056
                 =
2019-04-21 17:54 METAR KAKR 212154Z AUTO 00000KT 10SM FEW028 FEW034 OVC110 12/06 A3012 RMK AO2
                 SLP201 T01220056 =
2019-04-21 17:27 METAR KAKR 212127Z AUTO 00000KT 10SM SCT028 13/06 A3011 RMK AO2 T01280061 =
2019-04-21 16:54 METAR KAKR 212054Z AUTO 00000KT 10SM BKN022 OVC027 12/06 A3011 RMK AO2 SLP198
                 T01220061 51006 =
2019-04-21 15:54 METAR KAKR 211954Z AUTO 26006KT 10SM OVC020 11/06 A3011 RMK AO2 SLP197 T01110061
                 =
2019-04-21 14:54 METAR KAKR 211854Z AUTO 28006KT 10SM OVC018 11/06 A3010 RMK AO2 SLP195 T01060061
                 =
2019-04-21 14:27 METAR KAKR 211827Z AUTO 24007KT 10SM BKN017 OVC023 11/06 A3009 RMK AO2 T01060056
                 =
2019-04-21 13:54 METAR KAKR 211754Z AUTO VRB05KT 10SM BKN013 OVC022 10/06 A3009 RMK AO2 SLP192
                 60000 T01000061 10100 20072 51008 =
2019-04-21 13:44 METAR KAKR 211744Z AUTO 26007KT 10SM FEW009 BKN015 OVC022 09/07 A3009 RMK AO2
                 T00940067 =
2019-04-21 12:54 METAR KAKR 211654Z AUTO 24007KT 9SM OVC017 09/06 A3008 RMK AO2 SLP191 T00890056
                 =
2019-04-21 12:37 METAR KAKR 211637Z AUTO 29006KT 10SM OVC017 09/06 A3008 RMK AO2 T00890056 =
2019-04-21 12:18 METAR KAKR 211618Z AUTO 26003KT 10SM FEW009 OVC014 09/06 A3007 RMK AO2 T00890056
                 =
2019-04-21 12:11 METAR KAKR 211611Z AUTO 00000KT 10SM SCT010 OVC017 09/06 A3007 RMK AO2 T00890056
                 =
2019-04-21 11:54 METAR KAKR 211554Z AUTO 27005KT 10SM BKN008 OVC015 09/06 A3007 RMK AO2
                 RAB1455E10 SLP184 P0000 T00890056 =
2019-04-21 11:02 METAR KAKR 211502Z AUTO 27007KT 10SM -RA OVC009 08/06 A3005 RMK AO2 RAB1455 CIG
                 007V013 P0000 T00830056 =
2019-04-21 10:54 METAR KAKR 211454Z AUTO 30004KT 10SM OVC011 08/06 A3004 RMK AO2 CIG 008V014
                 SLP176 60000 T00830056 53012 =
2019-04-21 10:23 METAR KAKR 211423Z AUTO 27006KT 10SM BKN010 OVC014 08/06 A3003 RMK AO2 CIG
                 007V012 T00780056 =
2019-04-21 09:54 METAR KAKR 211354Z AUTO 27008KT 9SM BKN009 OVC015 08/06 A3002 RMK AO2 SLP170
                 T00830061 =
2019-04-21 09:49 METAR KAKR 211349Z AUTO 25005KT 10SM BKN009 OVC016 08/06 A3002 RMK AO2 =
2019-04-21 09:38 METAR KAKR 211338Z AUTO 24005KT 10SM OVC011 08/06 A3002 RMK AO2 T00830061 =
2019-04-21 08:54 METAR KAKR 211254Z AUTO 24007KT 4SM BR BKN006 OVC012 07/06 A3001 RMK AO2
                 RAB29E40 CIG 004V008 SLP164 P0000 T00720056 =
2019-04-21 08:47 METAR KAKR 211247Z AUTO 26008KT 4SM BR BKN006 OVC012 07/06 A3000 RMK AO2
                 RAB29E40 CIG 004V008 P0000 T00720056 =
2019-04-21 08:40 METAR KAKR 211240Z AUTO 27008KT 2 1/2SM BR BKN006 OVC010 07/06 A3000 RMK AO2
                 RAB29E40 CIG 004V008 P0000 T00720056 =
2019-04-21 08:30 METAR KAKR 211230Z AUTO 23007KT 3SM -RA BR OVC006 07/06 A3000 RMK AO2 RAB29
                 P0000 T00720056 =
2019-04-21 08:16 METAR KAKR 211216Z AUTO 23005KT 2 1/2SM BR BKN006 OVC012 07/06 A2999 RMK AO2 CIG
                 005V009 T00720056 =
2019-04-21 07:54 METAR KAKR 211154Z AUTO 24006KT 6SM BR SCT009 OVC012 07/06 A2999 RMK AO2 SLP156
                 T00720056 10078 20067 53034 =
2019-04-21 07:41 METAR KAKR 211141Z AUTO 22005KT 5SM BR SCT008 OVC014 07/06 A2998 RMK AO2
                 T00720056 =
2019-04-21 07:17 METAR KAKR 211117Z AUTO 25004KT 10SM BKN008 OVC014 07/06 A2997 RMK AO2 CIG
                 005V010 T00720056 =
2019-04-21 06:54 METAR KAKR 211054Z AUTO 23004KT 7SM OVC010 07/06 A2995 RMK AO2 CIG 007V012
                 SLP143 T00720056 =
2019-04-21 06:43 METAR KAKR 211043Z AUTO 23003KT 7SM BKN010 OVC018 07/05 A2994 RMK AO2 T00720050
                 =
2019-04-21 06:35 METAR KAKR 211035Z AUTO 23003KT 7SM BKN008 OVC016 07/05 A2994 RMK AO2 T00720050
                 =
2019-04-21 06:19 METAR KAKR 211019Z AUTO 26004KT 10SM FEW010 OVC015 07/05 A2992 RMK AO2 T00720050
                 =
2019-04-21 05:54 METAR KAKR 210954Z AUTO 27006KT 10SM OVC013 07/05 A2991 RMK AO2 SLP128 T00720050
                 =
2019-04-21 04:54 METAR KAKR 210854Z AUTO 27005KT 10SM OVC013 07/04 A2988 RMK AO2 SLP120 T00720044
                 53012 =
2019-04-21 04:02 METAR KAKR 210802Z AUTO 29005KT 10SM SCT007 OVC012 07/04 A2985 RMK AO2 T00720039
                 =
2019-04-21 03:54 METAR KAKR 210754Z AUTO 31003KT 10SM BKN007 OVC012 07/04 A2985 RMK AO2 CIG
                 006V011 SLP110 T00720044 =
2019-04-21 02:54 METAR KAKR 210654Z AUTO 29006KT 10SM OVC008 07/04 A2984 RMK AO2 SLP106 T00670039
                 =
2019-04-21 01:54 METAR KAKR 210554Z AUTO 32004KT 10SM OVC007 07/04 A2985 RMK AO2 SLP108 T00670044
                 10111 20067 51023 =
2019-04-21 00:54 METAR KAKR 210454Z AUTO 30006KT 10SM OVC008 07/04 A2983 RMK AO2 SLP103 T00670044
                 401560061 =
2019-04-20 23:54 METAR KAKR 210354Z AUTO 28008KT 10SM OVC009 07/04 A2981 RMK AO2 SLP096 T00720044
                 =
2019-04-20 23:40 METAR KAKR 210340Z AUTO 30010KT 10SM OVC009 08/04 A2980 RMK AO2 PRESRR T00780044
                 =
2019-04-20 22:54 METAR KAKR 210254Z AUTO 27006KT 10SM BKN010 08/05 A2978 RMK AO2 SLP085 T00780050
                 51018 =
2019-04-20 22:44 METAR KAKR 210244Z AUTO 28006KT 10SM SCT009 BKN100 08/05 A2978 RMK AO2 T00780050
                 =

Support USWX by starting your Amazon purchase here.